Time;durP1;ratioP1;P1;durP2;ratioP2;P2;SDS_P1;SDS_P2;PMS_P1;PMS_P2;Temp;Humidity;BMP_temperature;BMP_pressure;BME280_temperature;BME280_humidity;BME280_pressure;Samples;Min_cycle;Max_cycle;Signal;HPM_P1;HPM_P2
2021/08/02 00:00:13;;;;;;;7.13;4.65;;;15.50;99.90;;;;;;4998351;28;20511;-72
2021/08/02 00:02:49;;;;;;;5.75;4.78;;;15.50;99.90;;;;;;5020371;28;20389;-73
2021/08/02 00:05:21;;;;;;;5.78;5.07;;;15.50;99.90;;;;;;5018647;28;20108;-74
2021/08/02 00:08:02;;;;;;;7.75;4.10;;;15.50;99.90;;;;;;5013097;28;20036;-74
2021/08/02 00:10:31;;;;;;;5.43;4.13;;;15.50;99.90;;;;;;5016137;28;20412;-72
2021/08/02 00:13:14;;;;;;;5.63;5.03;;;15.50;99.90;;;;;;5021157;28;20036;-73
2021/08/02 00:15:47;;;;;;;6.38;5.32;;;15.50;99.90;;;;;;5020104;28;20084;-73
2021/08/02 00:18:12;;;;;;;4.80;4.15;;;15.50;99.90;;;;;;5013739;28;20124;-73
2021/08/02 00:23:52;;;;;;;5.00;4.05;;;15.40;99.90;;;;;;5016440;28;20075;-73
2021/08/02 00:26:22;;;;;;;5.40;4.90;;;15.40;99.90;;;;;;5018054;28;20034;-73
2021/08/02 00:28:48;;;;;;;4.50;4.10;;;15.30;99.90;;;;;;5019507;28;20036;-73
2021/08/02 00:31:51;;;;;;;5.15;4.25;;;15.30;99.90;;;;;;5020074;28;20035;-72
2021/08/02 00:34:17;;;;;;;5.15;4.65;;;15.30;99.90;;;;;;5000990;28;20045;-72
2021/08/02 00:36:44;;;;;;;5.45;4.93;;;15.30;99.90;;;;;;5018486;28;20042;-74
2021/08/02 00:39:24;;;;;;;4.93;4.38;;;15.20;99.90;;;;;;5021837;28;20117;-72
2021/08/02 00:42:27;;;;;;;4.53;4.10;;;15.30;99.90;;;;;;5018794;28;20068;-74
2021/08/02 00:45:12;;;;;;;5.10;4.60;;;15.20;99.90;;;;;;5013858;28;20045;-72
2021/08/02 00:47:59;;;;;;;6.82;4.60;;;15.30;99.90;;;;;;5018021;28;20022;-74
2021/08/02 00:50:29;;;;;;;5.70;4.70;;;15.30;99.90;;;;;;5018432;28;20049;-74
2021/08/02 00:53:00;;;;;;;5.43;4.15;;;15.30;99.90;;;;;;5017617;28;20488;-74
2021/08/02 00:55:32;;;;;;;7.75;4.25;;;15.40;99.90;;;;;;5017299;28;20034;-74
2021/08/02 00:58:01;;;;;;;5.90;5.28;;;15.40;99.90;;;;;;5014611;28;20033;-73
2021/08/02 01:00:27;;;;;;;5.00;4.43;;;15.40;99.90;;;;;;5016306;28;20103;-74
2021/08/02 01:02:53;;;;;;;5.47;4.97;;;15.40;99.90;;;;;;5018731;28;20645;-74
2021/08/02 01:05:19;;;;;;;5.78;4.60;;;15.40;99.90;;;;;;5013476;28;20026;-73
2021/08/02 01:07:56;;;;;;;5.75;4.80;;;15.50;99.90;;;;;;4999876;28;20390;-72
2021/08/02 01:10:22;;;;;;;4.78;4.25;;;15.50;99.90;;;;;;5012085;28;20033;-74
2021/08/02 01:12:49;;;;;;;4.72;4.10;;;15.40;99.90;;;;;;5016005;28;20084;-74
2021/08/02 01:15:17;;;;;;;5.20;4.30;;;15.40;99.90;;;;;;5019951;28;20025;-74
2021/08/02 01:17:44;;;;;;;5.03;4.35;;;15.50;99.90;;;;;;5017379;28;20034;-75
2021/08/02 01:20:11;;;;;;;5.40;4.90;;;15.40;99.90;;;;;;5019704;28;20109;-73
2021/08/02 01:22:37;;;;;;;5.15;4.65;;;15.50;99.90;;;;;;5020120;28;20037;-74
2021/08/02 01:25:37;;;;;;;6.72;4.28;;;15.50;99.90;;;;;;5020887;28;20034;-72
2021/08/02 01:28:15;;;;;;;5.95;4.50;;;15.50;99.90;;;;;;5017829;28;20043;-72
2021/08/02 01:30:57;;;;;;;4.68;4.07;;;15.50;99.90;;;;;;5020224;28;20046;-72
2021/08/02 01:33:30;;;;;;;5.65;4.40;;;15.60;99.90;;;;;;5013703;28;20057;-73
2021/08/02 01:36:04;;;;;;;6.05;4.57;;;15.60;99.90;;;;;;5016339;28;20026;-74
2021/08/02 01:38:31;;;;;;;6.30;4.85;;;15.70;99.90;;;;;;5019347;28;20033;-73
2021/08/02 01:40:57;;;;;;;5.35;4.60;;;15.60;99.90;;;;;;5014664;28;20060;-73
2021/08/02 01:43:24;;;;;;;4.97;4.47;;;15.60;99.90;;;;;;5015829;28;20440;-74
2021/08/02 01:46:02;;;;;;;5.25;4.75;;;15.60;99.90;;;;;;5009884;28;20125;-74
2021/08/02 01:48:44;;;;;;;5.57;4.70;;;15.70;99.90;;;;;;5017414;28;20076;-73
2021/08/02 01:51:23;;;;;;;4.70;4.28;;;15.70;99.90;;;;;;5018616;28;20069;-72
2021/08/02 01:54:01;;;;;;;4.70;4.30;;;15.70;99.90;;;;;;5018907;28;20104;-73
2021/08/02 01:56:39;;;;;;;7.43;5.18;;;15.60;99.90;;;;;;5012245;28;20100;-74
2021/08/02 01:59:15;;;;;;;5.10;4.10;;;15.60;99.90;;;;;;5017879;28;20066;-73
2021/08/02 02:02:09;;;;;;;5.28;4.18;;;15.70;99.90;;;;;;5000950;28;20026;-74
2021/08/02 02:04:41;;;;;;;4.75;4.00;;;15.70;99.90;;;;;;5013913;28;20037;-74
2021/08/02 02:07:10;;;;;;;4.65;4.15;;;15.50;99.90;;;;;;5016898;28;20507;-73
2021/08/02 02:09:39;;;;;;;10.48;4.93;;;15.70;99.90;;;;;;5021512;28;20144;-74
2021/08/02 02:12:05;;;;;;;4.20;3.80;;;15.70;99.90;;;;;;5022608;28;20096;-74
2021/08/02 02:14:35;;;;;;;5.30;4.00;;;15.70;99.90;;;;;;5019864;28;20033;-73
2021/08/02 02:17:03;;;;;;;5.47;3.83;;;15.70;99.90;;;;;;5020613;28;20030;-74
2021/08/02 02:19:30;;;;;;;4.55;3.85;;;15.70;99.90;;;;;;5022060;28;20095;-73
2021/08/02 02:21:57;;;;;;;4.93;4.10;;;15.70;99.90;;;;;;5020441;28;20109;-74
2021/08/02 02:24:24;;;;;;;4.30;3.90;;;15.60;99.90;;;;;;5019019;28;20084;-74
2021/08/02 02:26:51;;;;;;;4.43;4.03;;;15.60;99.90;;;;;;5020104;28;20033;-73
2021/08/02 02:29:22;;;;;;;4.20;3.80;;;15.60;99.90;;;;;;5019212;28;20030;-73
2021/08/02 02:31:49;;;;;;;4.72;3.90;;;15.60;99.90;;;;;;5022630;28;20018;-73
2021/08/02 02:34:16;;;;;;;5.03;3.40;;;15.60;99.90;;;;;;5018696;28;20030;-74
2021/08/02 02:36:47;;;;;;;4.28;3.55;;;15.60;99.90;;;;;;5021526;28;20033;-73
2021/08/02 02:39:13;;;;;;;4.20;3.63;;;15.60;99.90;;;;;;5019214;28;20030;-73
2021/08/02 02:41:40;;;;;;;3.95;3.20;;;15.70;99.90;;;;;;5021951;28;20116;-73
2021/08/02 02:44:06;;;;;;;3.60;3.30;;;15.70;99.90;;;;;;5016967;28;20050;-73
2021/08/02 02:46:32;;;;;;;4.90;3.47;;;15.70;99.90;;;;;;5018385;28;20129;-73
2021/08/02 02:48:59;;;;;;;4.38;3.55;;;15.70;99.90;;;;;;5024098;28;20538;-73
2021/08/02 02:51:29;;;;;;;4.97;3.35;;;15.70;99.90;;;;;;5016968;28;20034;-73
2021/08/02 02:53:58;;;;;;;5.50;3.72;;;15.70;99.90;;;;;;4993897;28;20036;-73
2021/08/02 02:56:25;;;;;;;6.40;3.63;;;15.70;99.90;;;;;;5019393;28;20037;-74
2021/08/02 02:58:51;;;;;;;3.88;3.50;;;15.70;99.90;;;;;;5016234;28;20243;-73
2021/08/02 03:01:20;;;;;;;6.13;3.70;;;15.70;99.90;;;;;;5018464;28;20037;-73
2021/08/02 03:03:50;;;;;;;4.13;3.63;;;15.70;99.90;;;;;;5013133;28;20150;-73
2021/08/02 03:06:20;;;;;;;3.35;3.05;;;15.70;99.90;;;;;;5013821;28;20492;-72
2021/08/02 03:08:59;;;;;;;5.85;4.50;;;15.80;99.90;;;;;;5018245;28;20396;-73
2021/08/02 03:11:25;;;;;;;4.93;4.32;;;15.70;99.90;;;;;;5010617;28;20080;-72
2021/08/02 03:13:50;;;;;;;4.80;3.78;;;15.70;99.90;;;;;;5020038;28;20064;-73
2021/08/02 03:16:18;;;;;;;5.30;3.78;;;15.70;99.90;;;;;;5019095;28;20113;-72
2021/08/02 03:18:44;;;;;;;5.88;4.32;;;15.70;99.90;;;;;;5014920;28;20062;-73
2021/08/02 03:21:09;;;;;;;5.05;3.63;;;15.70;99.90;;;;;;5014146;28;20068;-73
2021/08/02 03:23:47;;;;;;;4.53;4.13;;;15.70;99.90;;;;;;5013389;28;20037;-72
2021/08/02 03:26:39;;;;;;;3.95;3.55;;;15.70;99.90;;;;;;5017361;28;20100;-72
2021/08/02 03:29:15;;;;;;;5.35;4.32;;;15.70;99.90;;;;;;5014703;28;20345;-71
2021/08/02 03:31:53;;;;;;;5.85;4.20;;;15.70;99.90;;;;;;5019878;28;20396;-72
2021/08/02 03:34:22;;;;;;;4.57;3.53;;;15.70;99.90;;;;;;5021085;28;20369;-72
2021/08/02 03:36:49;;;;;;;4.68;4.15;;;15.70;99.90;;;;;;5016328;28;20501;-72
2021/08/02 03:39:21;;;;;;;5.30;4.13;;;15.80;99.90;;;;;;5016607;28;20056;-72
2021/08/02 03:41:48;;;;;;;3.72;3.42;;;15.80;99.90;;;;;;5016962;28;20392;-74
2021/08/02 03:44:14;;;;;;;6.20;3.75;;;15.80;99.90;;;;;;5018919;28;20077;-72
2021/08/02 03:46:47;;;;;;;4.43;3.45;;;15.80;99.90;;;;;;5017798;28;20021;-72
2021/08/02 03:49:13;;;;;;;4.85;3.40;;;15.80;99.90;;;;;;5020307;28;20121;-72
2021/08/02 03:51:46;;;;;;;6.18;4.78;;;15.70;99.90;;;;;;5019904;28;20021;-71
2021/08/02 03:54:14;;;;;;;4.97;3.60;;;15.80;99.90;;;;;;5016582;28;20033;-73
2021/08/02 03:56:43;;;;;;;4.80;4.30;;;15.70;99.90;;;;;;5016977;28;20036;-71
2021/08/02 03:59:09;;;;;;;4.70;3.88;;;15.70;99.90;;;;;;5013038;28;20104;-72
2021/08/02 04:01:40;;;;;;;5.55;4.03;;;15.70;99.90;;;;;;5015560;28;20033;-72
2021/08/02 04:04:06;;;;;;;6.60;4.27;;;15.70;99.90;;;;;;5019925;28;20029;-73
2021/08/02 04:06:32;;;;;;;4.20;3.33;;;15.70;99.90;;;;;;5013290;28;20636;-73
2021/08/02 04:08:58;;;;;;;6.90;3.25;;;15.70;99.90;;;;;;5018797;28;20146;-73
2021/08/02 04:11:23;;;;;;;4.88;4.38;;;15.70;99.90;;;;;;5015547;28;20030;-74
2021/08/02 04:13:48;;;;;;;5.50;3.58;;;15.70;99.90;;;;;;5022657;28;20488;-70
2021/08/02 04:16:16;;;;;;;4.47;3.33;;;15.80;99.90;;;;;;5017828;28;20030;-73
2021/08/02 04:18:49;;;;;;;4.70;2.95;;;15.70;99.90;;;;;;4996406;28;20145;-73
2021/08/02 04:21:14;;;;;;;4.93;2.90;;;15.70;99.90;;;;;;5020525;28;20435;-71
2021/08/02 04:23:40;;;;;;;6.80;5.47;;;15.70;99.90;;;;;;5012665;28;20034;-73
2021/08/02 04:26:05;;;;;;;6.70;3.15;;;15.70;99.90;;;;;;5015127;28;20014;-73
2021/08/02 04:28:31;;;;;;;3.53;2.90;;;15.70;99.90;;;;;;5015569;28;20026;-73
2021/08/02 04:30:57;;;;;;;5.38;3.50;;;15.70;99.90;;;;;;5016575;28;20112;-73
2021/08/02 04:33:23;;;;;;;6.93;3.08;;;15.70;99.90;;;;;;5019670;28;20176;-73
2021/08/02 04:35:49;;;;;;;4.10;2.70;;;15.80;99.90;;;;;;5015882;28;20034;-73
2021/08/02 04:38:15;;;;;;;4.28;2.80;;;15.80;99.90;;;;;;5019088;28;20030;-72
2021/08/02 04:40:40;;;;;;;3.95;3.00;;;15.80;99.90;;;;;;5025530;28;20025;-72
2021/08/02 04:43:32;;;;;;;6.05;3.05;;;15.90;99.90;;;;;;5020252;28;20040;-73
2021/08/02 04:45:58;;;;;;;5.30;3.00;;;15.80;99.90;;;;;;5013609;28;20049;-73
2021/08/02 04:48:23;;;;;;;5.72;3.35;;;15.80;99.90;;;;;;5015594;28;20049;-73
2021/08/02 04:50:49;;;;;;;5.78;2.90;;;15.80;99.90;;;;;;5016299;28;20029;-73
2021/08/02 04:53:14;;;;;;;3.92;3.28;;;15.80;99.90;;;;;;5017725;28;20021;-74
2021/08/02 04:55:40;;;;;;;5.50;3.70;;;15.80;99.90;;;;;;5015207;28;20117;-73
2021/08/02 04:58:06;;;;;;;3.45;2.80;;;15.80;99.90;;;;;;5017593;28;20030;-73
2021/08/02 05:00:41;;;;;;;3.95;3.25;;;15.90;99.90;;;;;;5016867;28;20040;-73
2021/08/02 05:03:06;;;;;;;3.70;3.17;;;15.90;99.90;;;;;;5015592;28;20569;-73
2021/08/02 05:05:32;;;;;;;7.40;3.38;;;16.00;99.90;;;;;;5018377;28;20041;-73
2021/08/02 05:07:57;;;;;;;5.78;3.03;;;15.90;99.90;;;;;;5017247;28;20021;-73
2021/08/02 05:10:23;;;;;;;5.53;3.70;;;15.90;99.90;;;;;;5016502;28;20025;-72
2021/08/02 05:12:52;;;;;;;4.32;3.63;;;15.90;99.90;;;;;;5019913;28;20026;-72
2021/08/02 05:15:18;;;;;;;3.53;3.22;;;15.80;99.90;;;;;;5016715;28;20026;-71
2021/08/02 05:17:43;;;;;;;5.68;2.95;;;15.90;99.90;;;;;;5013260;28;20030;-73
2021/08/02 05:20:09;;;;;;;4.95;3.42;;;15.80;99.90;;;;;;5015587;28;20025;-74
2021/08/02 05:22:35;;;;;;;3.45;3.13;;;16.00;99.90;;;;;;5010230;28;20033;-73
2021/08/02 05:25:00;;;;;;;5.25;3.65;;;16.10;99.90;;;;;;5015849;28;20021;-72
2021/08/02 05:27:26;;;;;;;5.45;2.90;;;16.20;99.90;;;;;;5013417;28;20144;-76
2021/08/02 05:29:52;;;;;;;5.07;3.40;;;16.40;99.90;;;;;;5015904;28;20557;-74
2021/08/02 05:32:18;;;;;;;3.97;3.05;;;17.00;99.90;;;;;;5018488;28;20055;-71
2021/08/02 05:34:44;;;;;;;3.10;2.58;;;17.90;99.90;;;;;;5017702;28;20041;-73
2021/08/02 05:37:11;;;;;;;5.13;2.92;;;18.90;99.90;;;;;;5013667;28;20568;-74
2021/08/02 05:39:56;;;;;;;4.28;2.40;;;19.90;99.90;;;;;;5016999;28;20136;-70
2021/08/02 05:42:25;;;;;;;4.80;2.20;;;20.90;99.90;;;;;;5016232;28;20088;-74
2021/08/02 05:44:50;;;;;;;6.20;2.20;;;21.90;99.90;;;;;;5025967;28;20049;-73
2021/08/02 05:47:16;;;;;;;5.07;2.90;;;22.50;99.90;;;;;;5020409;28;20087;-72
2021/08/02 05:49:42;;;;;;;4.18;2.60;;;22.10;99.90;;;;;;5021339;28;20037;-73
2021/08/02 05:52:08;;;;;;;6.55;3.70;;;21.30;99.90;;;;;;5019901;28;20021;-73
2021/08/02 05:54:33;;;;;;;5.28;2.90;;;20.80;99.90;;;;;;5017056;28;20025;-72
2021/08/02 05:56:59;;;;;;;4.95;3.75;;;20.20;99.90;;;;;;5027097;28;20036;-73
2021/08/02 05:59:25;;;;;;;3.47;2.63;;;19.60;99.90;;;;;;5022357;28;20033;-73
2021/08/02 06:01:50;;;;;;;7.25;3.58;;;19.20;99.90;;;;;;5020979;28;20496;-72
2021/08/02 06:04:22;;;;;;;3.55;2.55;;;18.90;99.90;;;;;;5014336;28;20183;-70
2021/08/02 06:06:47;;;;;;;3.70;3.03;;;18.60;99.90;;;;;;5020662;28;20025;-71
2021/08/02 06:09:13;;;;;;;5.25;2.97;;;18.50;99.90;;;;;;5022298;28;20026;-71
2021/08/02 06:11:38;;;;;;;5.45;2.75;;;18.50;99.90;;;;;;5020072;28;20080;-73
2021/08/02 06:14:04;;;;;;;6.88;3.63;;;18.50;99.90;;;;;;5025684;28;20017;-74
2021/08/02 06:16:29;;;;;;;5.47;3.15;;;18.60;99.90;;;;;;5024737;28;20388;-74
2021/08/02 06:18:57;;;;;;;5.30;3.40;;;18.70;99.90;;;;;;5022697;28;20425;-73
2021/08/02 06:21:22;;;;;;;5.03;2.92;;;18.90;99.90;;;;;;5032689;28;20029;-72
2021/08/02 06:23:47;;;;;;;5.38;3.03;;;18.50;99.90;;;;;;5038070;28;20080;-72
2021/08/02 06:26:13;;;;;;;4.32;2.80;;;18.40;99.90;;;;;;5022660;28;20030;-73
2021/08/02 06:28:38;;;;;;;9.27;5.22;;;18.30;99.90;;;;;;5022059;28;20025;-74
2021/08/02 06:31:04;;;;;;;7.55;2.70;;;18.40;99.90;;;;;;5020391;28;20479;-74
2021/08/02 06:33:30;;;;;;;7.18;3.45;;;18.40;99.90;;;;;;5022006;28;20036;-72
2021/08/02 06:35:56;;;;;;;8.65;3.60;;;18.50;99.90;;;;;;5016642;28;20033;-73
2021/08/02 06:38:21;;;;;;;6.90;3.30;;;18.60;99.90;;;;;;5023496;28;20143;-72
2021/08/02 06:40:47;;;;;;;6.32;3.50;;;18.60;99.90;;;;;;5020244;28;20032;-72
2021/08/02 06:43:13;;;;;;;3.53;3.00;;;18.60;99.90;;;;;;5019253;28;20061;-71
2021/08/02 06:45:40;;;;;;;3.38;2.50;;;18.90;99.90;;;;;;5020321;28;20033;-73
2021/08/02 06:48:05;;;;;;;4.25;2.15;;;19.20;99.90;;;;;;5019203;28;20021;-72
2021/08/02 06:50:31;;;;;;;7.80;2.30;;;20.20;99.90;;;;;;5020725;28;20022;-85
2021/08/02 06:52:57;;;;;;;3.10;2.05;;;20.80;99.90;;;;;;5014151;28;20108;-78
2021/08/02 06:55:22;;;;;;;2.55;2.13;;;21.20;99.90;;;;;;5018601;28;20033;-78
2021/08/02 06:57:48;;;;;;;10.25;2.13;;;21.10;99.90;;;;;;5019040;28;20080;-77
2021/08/02 07:00:14;;;;;;;2.80;2.00;;;21.40;99.90;;;;;;5015767;28;20033;-76
2021/08/02 07:02:39;;;;;;;7.63;2.45;;;21.50;99.90;;;;;;5019471;28;20064;-77
2021/08/02 07:05:06;;;;;;;3.90;2.20;;;22.40;99.80;;;;;;5015833;28;20045;-76
2021/08/02 07:07:34;;;;;;;4.45;1.60;;;24.00;97.10;;;;;;5022566;28;20458;-76
2021/08/02 07:09:59;;;;;;;4.35;3.08;;;26.00;92.80;;;;;;5013648;28;20480;-78
2021/08/02 07:12:25;;;;;;;6.45;2.08;;;26.60;89.40;;;;;;5023413;28;20026;-77
2021/08/02 07:14:51;;;;;;;3.53;1.85;;;26.60;87.70;;;;;;5021732;28;20417;-78
2021/08/02 07:17:16;;;;;;;3.30;2.13;;;26.40;85.90;;;;;;5020179;28;20079;-78
2021/08/02 07:19:42;;;;;;;4.93;2.40;;;26.70;84.10;;;;;;5020278;28;20033;-78
2021/08/02 07:22:07;;;;;;;2.38;1.48;;;26.00;84.10;;;;;;5021099;28;20120;-80
2021/08/02 07:24:33;;;;;;;5.30;1.85;;;25.90;83.60;;;;;;5019490;28;20096;-81
2021/08/02 07:26:58;;;;;;;6.88;1.92;;;26.50;80.30;;;;;;4998815;28;20094;-78
2021/08/02 07:29:24;;;;;;;4.15;2.13;;;25.60;83.10;;;;;;5014523;28;20068;-80
2021/08/02 07:31:50;;;;;;;3.10;1.73;;;25.40;82.30;;;;;;5020191;28;20108;-79
2021/08/02 07:34:15;;;;;;;5.20;2.20;;;25.50;81.40;;;;;;5013099;28;20018;-78
2021/08/02 07:36:44;;;;;;;3.90;2.00;;;24.60;83.00;;;;;;5017717;28;20381;-79
2021/08/02 07:39:11;;;;;;;3.67;2.53;;;24.30;83.00;;;;;;5023171;28;20021;-78
2021/08/02 07:41:37;;;;;;;2.13;1.20;;;24.70;83.70;;;;;;5019470;28;20025;-80
2021/08/02 07:44:03;;;;;;;2.30;1.73;;;26.20;79.70;;;;;;5022363;28;20049;-78
2021/08/02 07:46:28;;;;;;;5.38;4.22;;;27.60;74.80;;;;;;5019077;28;20029;-76
2021/08/02 07:48:54;;;;;;;2.85;2.00;;;27.60;74.60;;;;;;5021869;28;20017;-76
2021/08/02 07:51:19;;;;;;;3.97;2.50;;;27.60;74.50;;;;;;5018948;28;20472;-77
2021/08/02 07:53:45;;;;;;;3.40;1.80;;;28.10;71.40;;;;;;5020202;28;20022;-76
2021/08/02 07:56:11;;;;;;;4.88;2.72;;;27.30;72.40;;;;;;5020634;28;20492;-76
2021/08/02 07:58:36;;;;;;;2.33;1.65;;;27.40;71.50;;;;;;5019207;28;20076;-77
2021/08/02 08:01:02;;;;;;;3.65;1.50;;;26.90;70.00;;;;;;5021833;28;20037;-76
2021/08/02 08:03:28;;;;;;;1.95;1.70;;;27.20;69.20;;;;;;5013405;28;20388;-76
2021/08/02 08:05:54;;;;;;;2.28;1.58;;;27.80;68.40;;;;;;5017277;28;20083;-76
2021/08/02 08:08:20;;;;;;;3.22;2.20;;;27.00;68.70;;;;;;5020043;28;20022;-77
2021/08/02 08:10:46;;;;;;;3.35;2.95;;;25.50;71.80;;;;;;5019863;28;20021;-77
2021/08/02 08:13:12;;;;;;;5.55;2.70;;;25.30;73.90;;;;;;5021937;28;20106;-77
2021/08/02 08:15:38;;;;;;;4.82;3.47;;;25.50;73.30;;;;;;5018387;28;20563;-77
2021/08/02 08:18:03;;;;;;;3.65;2.15;;;24.50;75.40;;;;;;5021021;28;20381;-76
2021/08/02 08:20:29;;;;;;;2.03;1.83;;;23.70;77.80;;;;;;5017120;28;20032;-76
2021/08/02 08:22:54;;;;;;;8.40;2.70;;;22.50;80.20;;;;;;5017908;28;20018;-76
2021/08/02 08:25:20;;;;;;;12.13;2.88;;;21.60;83.10;;;;;;5017138;28;20083;-75
2021/08/02 08:27:46;;;;;;;8.35;2.08;;;20.90;84.60;;;;;;5019109;28;20026;-76
2021/08/02 08:30:13;;;;;;;2.70;1.85;;;20.60;86.00;;;;;;5019993;28;20106;-77
2021/08/02 08:32:39;;;;;;;7.35;2.28;;;21.60;85.30;;;;;;5017382;28;20033;-76
2021/08/02 08:35:05;;;;;;;3.22;2.20;;;22.60;82.90;;;;;;5021831;28;20460;-76
2021/08/02 08:37:31;;;;;;;3.00;1.83;;;24.30;79.10;;;;;;5017914;28;20104;-78
2021/08/02 08:39:56;;;;;;;2.33;1.60;;;26.10;72.80;;;;;;5019363;28;20105;-77
2021/08/02 08:42:22;;;;;;;2.63;1.85;;;28.10;67.80;;;;;;5015387;28;20044;-78
2021/08/02 08:44:48;;;;;;;3.30;1.50;;;28.70;66.60;;;;;;5019314;28;20072;-77
2021/08/02 08:47:13;;;;;;;3.28;1.25;;;28.30;64.80;;;;;;5017018;28;20375;-77
2021/08/02 08:49:42;;;;;;;3.75;1.30;;;29.60;62.90;;;;;;5017240;28;20076;-77
2021/08/02 08:52:09;;;;;;;5.13;2.47;;;31.10;60.10;;;;;;5019331;28;20103;-77
2021/08/02 08:54:36;;;;;;;11.63;2.42;;;30.50;59.20;;;;;;5015192;28;20083;-77
2021/08/02 08:57:02;;;;;;;4.32;1.30;;;;;;;;;;5017006;28;20037;-77
2021/08/02 08:59:29;;;;;;;5.70;1.80;;;28.50;60.30;;;;;;5019126;28;20029;-77
2021/08/02 09:02:03;;;;;;;8.82;1.50;;;27.30;61.30;;;;;;5027198;28;20037;-77
2021/08/02 09:04:30;;;;;;;2.70;1.20;;;27.20;61.40;;;;;;5021155;28;20025;-78
2021/08/02 09:06:59;;;;;;;2.38;1.77;;;28.60;58.70;;;;;;5018126;28;20037;-78
2021/08/02 09:09:32;;;;;;;6.50;2.88;;;30.30;58.20;;;;;;5019744;28;20037;-80
2021/08/02 09:12:19;;;;;;;6.03;4.85;;;31.60;56.50;;;;;;5026345;28;20025;-80
2021/08/02 09:14:52;;;;;;;2.63;1.40;;;32.10;54.40;;;;;;5035559;28;20018;-77
2021/08/02 09:17:37;;;;;;;3.67;2.00;;;31.20;54.20;;;;;;5024292;28;20101;-79
2021/08/02 09:20:17;;;;;;;4.55;2.38;;;29.70;56.40;;;;;;5015853;28;20033;-79
2021/08/02 09:22:42;;;;;;;;;;;27.80;58.80;;;;;;4997413;28;20034;-79
2021/08/02 09:25:17;;;;;;;3.38;1.55;;;26.30;61.80;;;;;;5013268;28;19956;-79
2021/08/02 09:27:43;;;;;;;2.67;1.65;;;25.50;63.60;;;;;;5015897;28;20117;-78
2021/08/02 09:30:23;;;;;;;3.53;1.60;;;25.40;64.00;;;;;;5014685;28;20030;-78
2021/08/02 09:32:50;;;;;;;2.50;1.70;;;26.80;62.10;;;;;;5017831;28;20033;-78
2021/08/02 09:35:38;;;;;;;2.38;1.27;;;27.30;59.00;;;;;;5021657;28;20034;-80
2021/08/02 09:38:07;;;;;;;2.55;1.45;;;28.60;57.80;;;;;;5007843;28;20480;-79
2021/08/02 09:40:53;;;;;;;2.47;1.85;;;28.60;58.40;;;;;;5019993;28;20040;-77
2021/08/02 09:43:21;;;;;;;4.47;1.80;;;30.70;55.70;;;;;;5016993;28;20077;-82
2021/08/02 09:46:01;;;;;;;3.35;1.58;;;30.60;56.10;;;;;;5022586;28;20109;-90
2021/08/02 09:48:38;;;;;;;5.93;3.93;;;31.50;54.40;;;;;;5022244;28;20046;-89
2021/08/02 09:51:14;;;;;;;5.32;1.63;;;30.20;55.70;;;;;;5019341;28;20504;-90
2021/08/02 09:53:44;;;;;;;9.50;2.35;;;28.50;57.10;;;;;;5024905;28;20075;-91
2021/08/02 09:56:19;;;;;;;9.60;2.58;;;25.50;61.30;;;;;;5022601;28;20021;-88
2021/08/02 09:58:46;;;;;;;5.47;1.33;;;25.60;61.60;;;;;;5021661;28;20191;-90
2021/08/02 10:01:13;;;;;;;2.83;1.52;;;25.50;62.00;;;;;;5023547;28;20022;-89
2021/08/02 10:03:39;;;;;;;2.33;1.55;;;25.40;62.50;;;;;;5017695;28;20014;-89
2021/08/02 10:06:06;;;;;;;3.10;1.63;;;25.10;62.90;;;;;;5031621;28;20084;-90
2021/08/02 10:08:34;;;;;;;4.72;1.63;;;24.60;64.20;;;;;;5016202;28;20037;-91
2021/08/02 10:11:00;;;;;;;4.57;1.63;;;24.40;64.40;;;;;;5022519;28;20336;-90
2021/08/02 10:13:28;;;;;;;2.65;1.48;;;24.10;64.70;;;;;;5023892;28;20033;-90
2021/08/02 10:15:57;;;;;;;5.70;1.40;;;23.80;64.60;;;;;;5011825;28;20203;-92
2021/08/02 10:18:23;;;;;;;12.00;2.20;;;23.30;65.00;;;;;;5033253;28;20034;-92
2021/08/02 10:20:49;;;;;;;2.97;1.50;;;22.90;67.50;;;;;;5020343;28;20025;-88
2021/08/02 10:23:25;;;;;;;8.93;1.80;;;22.80;67.60;;;;;;5032201;28;20025;-92
2021/08/02 10:25:51;;;;;;;4.00;1.70;;;22.30;68.30;;;;;;5029210;28;20029;-89
2021/08/02 10:28:18;;;;;;;3.45;1.92;;;22.30;67.90;;;;;;5019789;28;20044;-89
2021/08/02 10:30:59;;;;;;;6.13;1.83;;;22.30;68.20;;;;;;5035033;28;20025;-89
2021/08/02 10:33:35;;;;;;;5.70;3.10;;;22.00;68.50;;;;;;5019355;28;20040;-89
2021/08/02 10:36:12;;;;;;;3.58;1.70;;;22.70;68.30;;;;;;4994387;28;20079;-89
2021/08/02 10:38:46;;;;;;;2.80;1.27;;;23.40;66.50;;;;;;5025947;28;20079;-91
2021/08/02 10:41:24;;;;;;;2.65;1.52;;;23.70;65.40;;;;;;5009533;28;20029;-89
2021/08/02 10:43:50;;;;;;;7.70;1.40;;;23.30;67.00;;;;;;5022539;28;20073;-85
2021/08/02 10:46:18;;;;;;;2.42;1.50;;;23.10;67.60;;;;;;5021795;28;20437;-84
2021/08/02 10:48:44;;;;;;;3.78;1.73;;;22.80;68.50;;;;;;5005403;28;20125;-86
2021/08/02 10:51:17;;;;;;;1.88;1.40;;;23.40;66.90;;;;;;5020874;28;20026;-85
2021/08/02 10:53:43;;;;;;;4.97;2.03;;;23.90;66.40;;;;;;5026051;28;20032;-88
2021/08/02 10:56:09;;;;;;;2.83;1.40;;;24.20;65.20;;;;;;5023170;28;20241;-77
2021/08/02 10:58:40;;;;;;;4.90;2.28;;;25.10;64.70;;;;;;5018602;28;20040;-77
2021/08/02 11:01:11;;;;;;;4.25;1.55;;;25.10;65.20;;;;;;5013139;28;20036;-77
2021/08/02 11:03:39;;;;;;;2.17;1.38;;;25.70;62.00;;;;;;5011025;28;20021;-77
2021/08/02 11:06:06;;;;;;;4.72;1.48;;;25.90;61.40;;;;;;5019340;28;20029;-80
2021/08/02 11:08:50;;;;;;;3.58;2.00;;;25.40;62.60;;;;;;5016929;28;20160;-79
2021/08/02 11:11:24;;;;;;;5.95;2.22;;;25.90;62.40;;;;;;5023798;28;20022;-78
2021/08/02 11:13:51;;;;;;;3.63;1.85;;;25.40;62.10;;;;;;5003051;28;20028;-79
2021/08/02 11:16:17;;;;;;;6.22;2.05;;;25.50;61.50;;;;;;5019796;28;20049;-80
2021/08/02 11:18:45;;;;;;;9.95;4.15;;;25.80;61.90;;;;;;5023764;28;20033;-79
2021/08/02 11:21:25;;;;;;;2.25;1.80;;;25.40;61.70;;;;;;5020260;28;20033;-80
2021/08/02 11:23:51;;;;;;;2.80;1.60;;;25.20;61.60;;;;;;5021896;28;20388;-80
2021/08/02 11:26:17;;;;;;;3.45;1.50;;;25.00;61.60;;;;;;5006796;28;20131;-77
2021/08/02 11:28:48;;;;;;;10.27;6.93;;;24.20;62.60;;;;;;5023159;28;20021;-80
2021/08/02 11:31:15;;;;;;;6.32;2.03;;;23.60;63.80;;;;;;5026652;28;20025;-80
2021/08/02 11:33:43;;;;;;;3.72;1.50;;;23.30;63.70;;;;;;5023543;28;20029;-80
2021/08/02 11:36:20;;;;;;;2.58;1.40;;;22.80;61.10;;;;;;5007447;28;20091;-81
2021/08/02 11:38:47;;;;;;;5.07;2.50;;;23.00;61.10;;;;;;5017460;28;20089;-81
2021/08/02 11:41:30;;;;;;;3.70;1.80;;;23.70;61.30;;;;;;5019681;28;20037;-80
2021/08/02 11:43:58;;;;;;;3.97;1.40;;;25.00;59.90;;;;;;5021343;28;20050;-83
2021/08/02 11:46:25;;;;;;;3.97;1.45;;;25.90;58.00;;;;;;5021905;28;20033;-80
2021/08/02 11:48:51;;;;;;;3.08;1.75;;;26.20;57.90;;;;;;5020238;28;20032;-82
2021/08/02 11:51:18;;;;;;;3.90;2.00;;;26.70;58.80;;;;;;5000549;28;20025;-83
2021/08/02 11:53:44;;;;;;;3.65;1.63;;;27.80;57.30;;;;;;5019886;28;20026;-83
2021/08/02 11:56:09;;;;;;;3.72;1.90;;;29.20;54.90;;;;;;5021633;28;20033;-85
2021/08/02 11:58:45;;;;;;;4.00;2.50;;;28.50;55.40;;;;;;5019181;28;20168;-85
2021/08/02 12:01:12;;;;;;;2.08;1.70;;;28.90;55.40;;;;;;5013922;28;20030;-84
2021/08/02 12:03:38;;;;;;;4.82;4.10;;;30.20;53.90;;;;;;5021587;28;20110;-84
2021/08/02 12:06:08;;;;;;;2.08;1.60;;;30.00;54.60;;;;;;5024516;28;20026;-85
2021/08/02 12:08:36;;;;;;;3.03;1.83;;;30.70;52.90;;;;;;5018222;28;20026;-87
2021/08/02 12:11:06;;;;;;;3.88;1.67;;;31.40;52.80;;;;;;5021092;28;20034;-83
2021/08/02 12:13:45;;;;;;;23.95;2.38;;;30.60;49.10;;;;;;5026791;28;20380;-85
2021/08/02 12:16:12;;;;;;;3.83;1.67;;;30.20;50.00;;;;;;5012283;28;20634;-86
2021/08/02 12:18:38;;;;;;;3.80;1.73;;;29.80;50.90;;;;;;5019106;28;20131;-84
2021/08/02 12:21:22;;;;;;;2.38;1.55;;;29.70;50.50;;;;;;5023844;28;20399;-84
2021/08/02 12:23:48;;;;;;;3.35;1.50;;;29.20;49.30;;;;;;5024860;28;20040;-83
2021/08/02 12:26:20;;;;;;;2.38;1.70;;;28.20;51.30;;;;;;5021816;28;20030;-83
2021/08/02 12:28:49;;;;;;;3.30;1.90;;;28.10;51.80;;;;;;5021833;28;20385;-85
2021/08/02 12:31:17;;;;;;;2.63;1.50;;;28.60;51.50;;;;;;5020019;28;20110;-84
2021/08/02 12:33:45;;;;;;;2.67;1.65;;;28.60;51.30;;;;;;5008931;28;20018;-84
2021/08/02 12:36:11;;;;;;;42.67;38.55;;;28.90;52.30;;;;;;5012250;28;20030;-81
2021/08/02 12:38:45;;;;;;;3.45;3.15;;;30.20;51.60;;;;;;5018876;28;20064;-81
2021/08/02 12:41:10;;;;;;;3.13;1.75;;;31.10;49.50;;;;;;5014589;28;20117;-85
2021/08/02 12:43:36;;;;;;;3.60;1.50;;;30.70;50.00;;;;;;5024561;28;20120;-84
2021/08/02 12:46:01;;;;;;;1.73;1.50;;;30.50;49.80;;;;;;5023812;28;20392;-85
2021/08/02 12:48:31;;;;;;;5.43;2.20;;;31.20;48.80;;;;;;5024648;28;20041;-84
2021/08/02 12:50:57;;;;;;;3.70;1.80;;;31.20;49.80;;;;;;5022412;28;20037;-85
2021/08/02 12:53:25;;;;;;;1.92;1.30;;;31.80;47.60;;;;;;5020155;28;20034;-84
2021/08/02 12:55:50;;;;;;;3.03;1.63;;;30.00;48.50;;;;;;5019485;28;20128;-83
2021/08/02 12:58:16;;;;;;;2.80;1.73;;;29.40;49.10;;;;;;5017275;28;20386;-86
2021/08/02 13:00:43;;;;;;;2.17;1.55;;;29.30;49.60;;;;;;5014466;28;20116;-86